Time;durP1;ratioP1;P1;durP2;ratioP2;P2;SDS_P1;SDS_P2;PMS_P1;PMS_P2;Temp;Humidity;BMP_temperature;BMP_pressure;BME280_temperature;BME280_humidity;BME280_pressure;Samples;Min_cycle;Max_cycle;Signal;HPM_P1;HPM_P2
2022/04/21 00:01:38;;;;;;;;;;;12.50;40.80;;;;;;4960339;28;20001;-90
2022/04/21 00:04:04;;;;;;;;;;;12.50;41.20;;;;;;4978663;28;19982;-91
2022/04/21 00:06:29;;;;;;;;;;;12.50;41.60;;;;;;4958251;28;19925;-90
2022/04/21 00:08:56;;;;;;;;;;;12.50;41.90;;;;;;4956576;28;20004;-91
2022/04/21 00:11:21;;;;;;;;;;;12.50;41.80;;;;;;4957713;28;19962;-90
2022/04/21 00:13:48;;;;;;;;;;;12.50;41.60;;;;;;4973035;28;19921;-90
2022/04/21 00:16:13;;;;;;;;;;;12.40;41.30;;;;;;4967516;28;19961;-91
2022/04/21 00:18:39;;;;;;;;;;;12.40;41.10;;;;;;4950351;28;19915;-90
2022/04/21 00:21:05;;;;;;;;;;;12.30;41.00;;;;;;4957133;28;20385;-91
2022/04/21 00:23:31;;;;;;;;;;;12.30;41.20;;;;;;4978380;28;19922;-90
2022/04/21 00:25:58;;;;;;;;;;;12.20;41.10;;;;;;4958250;28;20016;-90
2022/04/21 00:28:24;;;;;;;;;;;12.20;41.50;;;;;;4967521;28;20446;-90
2022/04/21 00:30:50;;;;;;;;;;;12.20;41.60;;;;;;4963598;28;20176;-90
2022/04/21 00:33:16;;;;;;;;;;;12.10;41.30;;;;;;4967475;28;19950;-89
2022/04/21 00:35:41;;;;;;;;;;;12.10;41.20;;;;;;4979000;28;19926;-89
2022/04/21 00:38:07;;;;;;;;;;;12.10;41.20;;;;;;4978638;28;19914;-88
2022/04/21 00:40:32;;;;;;;;;;;12.00;41.00;;;;;;4951367;29;19918;-89
2022/04/21 00:42:58;;;;;;;;;;;11.90;41.00;;;;;;4977598;28;20657;-92
2022/04/21 00:45:24;;;;;;;;;;;11.90;40.90;;;;;;4968884;28;19919;-91
2022/04/21 00:47:50;;;;;;;;;;;11.80;40.90;;;;;;4957506;28;19921;-91
2022/04/21 00:50:17;;;;;;;;;;;11.80;40.90;;;;;;4962753;28;19894;-89
2022/04/21 00:52:44;;;;;;;;;;;11.70;41.00;;;;;;4957784;28;19922;-90
2022/04/21 00:55:10;;;;;;;;;;;11.60;41.10;;;;;;4959598;28;19929;-91
2022/04/21 00:57:37;;;;;;;;;;;11.60;41.10;;;;;;4954295;28;20279;-91
2022/04/21 01:00:04;;;;;;;;;;;11.50;41.20;;;;;;4971509;28;20433;-90
2022/04/21 01:05:14;;;;;;;;;;;11.40;41.30;;;;;;4975753;28;19921;-90
2022/04/21 01:07:40;;;;;;;;;;;11.40;41.80;;;;;;4943463;29;20258;-90
2022/04/21 01:10:06;;;;;;;;;;;11.30;41.90;;;;;;4971497;28;20372;-90
2022/04/21 01:12:32;;;;;;;;;;;11.30;41.90;;;;;;4975138;28;19923;-91
2022/04/21 01:14:58;;;;;;;;;;;11.30;41.90;;;;;;4946089;29;20008;-88
2022/04/21 01:17:33;;;;;;;;;;;11.20;42.00;;;;;;4958349;28;19928;-90
2022/04/21 01:20:00;;;;;;;;;;;11.20;42.20;;;;;;4942852;29;19930;-88
2022/04/21 01:22:26;;;;;;;;;;;11.20;42.40;;;;;;4976734;28;19957;-89
2022/04/21 01:24:51;;;;;;;;;;;11.20;42.40;;;;;;4961062;28;19973;-89
2022/04/21 01:27:17;;;;;;;;;;;11.10;42.40;;;;;;4979240;28;20371;-90
2022/04/21 01:29:43;;;;;;;;;;;11.10;42.50;;;;;;4962067;28;19969;-88
2022/04/21 01:32:08;;;;;;;;;;;11.00;42.50;;;;;;4961809;28;19981;-88
2022/04/21 01:34:34;;;;;;;;;;;11.00;42.70;;;;;;4978662;28;19928;-88
2022/04/21 01:42:47;;;;;;;;;;;10.90;42.90;;;;;;4949917;28;19929;-88
2022/04/21 01:45:13;;;;;;;;;;;10.80;42.90;;;;;;4939131;29;19992;-89
2022/04/21 01:47:40;;;;;;;;;;;10.80;42.80;;;;;;4939407;28;19969;-89
2022/04/21 01:50:07;;;;;;;;;;;10.80;42.80;;;;;;4958464;28;19918;-89
2022/04/21 01:52:33;;;;;;;;;;;10.70;42.80;;;;;;4957186;28;19925;-88
2022/04/21 01:54:59;;;;;;;;;;;10.70;42.70;;;;;;4974506;28;19980;-90
2022/04/21 01:57:24;;;;;;;;;;;10.70;42.70;;;;;;4958090;28;19922;-89
2022/04/21 01:59:51;;;;;;;;;;;10.60;42.70;;;;;;4956952;28;19918;-90
2022/04/21 02:02:17;;;;;;;;;;;10.60;42.80;;;;;;4951131;28;19925;-90
2022/04/21 02:04:42;;;;;;;;;;;10.50;42.80;;;;;;4960129;28;19918;-88
2022/04/21 02:07:08;;;;;;;;;;;10.40;42.80;;;;;;4952758;28;19919;-89
2022/04/21 02:09:34;;;;;;;;;;;10.40;42.70;;;;;;4967980;28;19922;-88
2022/04/21 02:11:59;;;;;;;;;;;10.30;42.70;;;;;;4973934;28;19925;-89
2022/04/21 02:14:25;;;;;;;;;;;10.30;43.10;;;;;;4958886;28;19922;-87
2022/04/21 02:16:50;;;;;;;;;;;10.20;43.60;;;;;;4959668;28;19918;-88
2022/04/21 02:19:15;;;;;;;;;;;10.20;43.70;;;;;;4962170;28;19915;-88
2022/04/21 02:21:42;;;;;;;;;;;10.10;43.80;;;;;;4963576;28;20275;-88
2022/04/21 02:24:07;;;;;;;;;;;10.00;44.10;;;;;;4968983;28;19946;-87
2022/04/21 02:26:33;;;;;;;;;;;10.00;45.30;;;;;;4967247;28;19973;-91
2022/04/21 02:28:58;;;;;;;;;;;10.10;45.80;;;;;;4955154;28;19914;-89
2022/04/21 02:31:24;;;;;;;;;;;10.10;45.80;;;;;;4957466;28;19926;-89
2022/04/21 02:33:49;;;;;;;;;;;10.20;46.10;;;;;;4960548;28;19964;-89
2022/04/21 02:36:15;;;;;;;;;;;10.10;46.50;;;;;;4962747;28;20295;-89
2022/04/21 02:38:40;;;;;;;;;;;10.20;46.50;;;;;;4947813;29;19914;-90
2022/04/21 02:41:06;;;;;;;;;;;10.20;46.80;;;;;;4961528;28;19950;-90
2022/04/21 02:43:33;;;;;;;;;;;10.20;46.90;;;;;;4961098;28;19918;-91
2022/04/21 02:45:58;;;;;;;;;;;10.30;47.10;;;;;;4963916;28;20362;-90
2022/04/21 02:48:24;;;;;;;;;;;10.30;46.60;;;;;;4977101;28;19918;-90
2022/04/21 02:50:49;;;;;;;;;;;10.30;46.40;;;;;;4954471;28;20001;-91
2022/04/21 02:53:15;;;;;;;;;;;10.30;46.40;;;;;;4965983;28;19922;-89
2022/04/21 02:58:24;;;;;;;;;;;10.20;46.40;;;;;;4953823;28;20009;-90
2022/04/21 03:00:50;;;;;;;;;;;10.20;46.60;;;;;;4960586;28;19958;-89
2022/04/21 03:03:15;;;;;;;;;;;10.20;46.70;;;;;;4965739;28;19966;-88
2022/04/21 03:05:42;;;;;;;;;;;10.20;47.30;;;;;;4970306;28;19950;-88
2022/04/21 03:08:08;;;;;;;;;;;10.20;47.80;;;;;;4972523;28;19914;-89
2022/04/21 03:10:33;;;;;;;;;;;10.20;47.90;;;;;;4954494;28;19921;-87
2022/04/21 03:12:59;;;;;;;;;;;10.20;48.50;;;;;;4964296;28;20251;-88
2022/04/21 03:15:24;;;;;;;;;;;10.20;48.40;;;;;;4962025;28;19910;-89
2022/04/21 03:17:51;;;;;;;;;;;10.20;48.80;;;;;;4963573;28;19918;-89
2022/04/21 03:25:45;;;;;;;;;;;10.20;49.30;;;;;;4971904;28;19924;-90
2022/04/21 03:28:11;;;;;;;;;;;10.30;49.60;;;;;;4960817;28;19922;-89
2022/04/21 03:30:37;;;;;;;;;;;10.30;49.80;;;;;;4941967;29;19948;-89
2022/04/21 03:33:03;;;;;;;;;;;10.40;49.90;;;;;;4957924;29;19918;-89
2022/04/21 03:35:28;;;;;;;;;;;10.50;49.70;;;;;;4958778;28;19969;-90
2022/04/21 03:37:54;;;;;;;;;;;10.50;49.60;;;;;;4974151;28;19965;-90
2022/04/21 03:40:19;;;;;;;;;;;10.50;49.70;;;;;;4960634;28;19910;-88
2022/04/21 03:42:46;;;;;;;;;;;10.50;49.80;;;;;;4960607;28;20394;-90
2022/04/21 03:45:11;;;;;;;;;;;10.60;49.90;;;;;;4977909;28;19925;-91
2022/04/21 03:47:38;;;;;;;;;;;10.60;49.70;;;;;;4978532;28;20362;-89
2022/04/21 03:50:04;;;;;;;;;;;10.60;49.80;;;;;;4959918;28;20325;-89
2022/04/21 03:52:30;;;;;;;;;;;10.60;50.10;;;;;;4959849;28;19940;-90
2022/04/21 03:54:55;;;;;;;;;;;10.60;50.00;;;;;;4978215;28;19985;-91
2022/04/21 03:57:21;;;;;;;;;;;10.60;50.00;;;;;;4961133;28;20020;-90
2022/04/21 03:59:46;;;;;;;;;;;10.60;50.20;;;;;;4960663;28;19978;-89
2022/04/21 04:02:11;;;;;;;;;;;10.60;50.30;;;;;;4978083;28;19942;-90
2022/04/21 04:04:37;;;;;;;;;;;10.50;50.20;;;;;;4960105;28;20266;-90
2022/04/21 04:12:36;;;;;;;;;;;10.60;50.60;;;;;;4977443;28;19962;-89
2022/04/21 04:15:02;;;;;;;;;;;10.60;50.80;;;;;;4959505;28;19918;-90
2022/04/21 04:17:28;;;;;;;;;;;10.60;50.80;;;;;;4959956;28;19925;-90
2022/04/21 04:19:54;;;;;;;;;;;10.60;50.90;;;;;;4959728;28;19914;-88
2022/04/21 04:22:19;;;;;;;;;;;10.60;50.80;;;;;;4959272;28;19925;-89
2022/04/21 04:24:45;;;;;;;;;;;10.60;50.70;;;;;;4959856;28;19910;-89
2022/04/21 04:27:12;;;;;;;;;;;10.60;50.90;;;;;;4959902;28;20013;-90
2022/04/21 04:29:37;;;;;;;;;;;10.70;50.90;;;;;;4959097;28;19965;-90
2022/04/21 04:32:03;;;;;;;;;;;10.70;50.80;;;;;;4965588;28;19926;-88
2022/04/21 04:34:28;;;;;;;;;;;10.70;50.70;;;;;;4957473;28;19922;-89
2022/04/21 04:36:54;;;;;;;;;;;10.70;50.60;;;;;;4958791;28;19964;-90
2022/04/21 04:39:19;;;;;;;;;;;10.70;50.40;;;;;;4955867;28;19935;-89
2022/04/21 04:44:29;;;;;;;;;;;10.70;50.50;;;;;;4960262;28;19926;-90
2022/04/21 04:46:55;;;;;;;;;;;10.70;50.50;;;;;;4948475;29;19915;-92
2022/04/21 04:49:20;;;;;;;;;;;10.70;50.70;;;;;;4967001;28;19922;-90
2022/04/21 04:51:46;;;;;;;;;;;10.80;50.80;;;;;;4958797;28;19958;-90
2022/04/21 04:54:12;;;;;;;;;;;10.80;51.10;;;;;;4966558;28;19974;-90
2022/04/21 04:56:39;;;;;;;;;;;10.90;51.00;;;;;;4958024;29;20626;-91
2022/04/21 04:59:04;;;;;;;;;;;11.00;51.00;;;;;;4962498;28;19977;-89
2022/04/21 05:01:31;;;;;;;;;;;11.10;51.10;;;;;;4979910;28;20370;-90
2022/04/21 05:04:00;;;;;;;;;;;11.30;51.40;;;;;;4974061;28;20009;-91
2022/04/21 05:06:26;;;;;;;;;;;11.50;51.70;;;;;;4959169;28;19996;-88
2022/04/21 05:08:51;;;;;;;;;;;11.80;51.70;;;;;;4961307;28;20389;-90
2022/04/21 05:11:17;;;;;;;;;;;12.20;51.70;;;;;;4959860;28;19910;-91
2022/04/21 05:13:43;;;;;;;;;;;12.50;52.00;;;;;;4985820;28;20583;-91
2022/04/21 05:16:09;;;;;;;;;;;13.00;52.10;;;;;;4959520;28;20300;-90
2022/04/21 05:18:36;;;;;;;;;;;13.50;52.10;;;;;;4964654;28;19918;-89
2022/04/21 05:21:01;;;;;;;;;;;13.90;51.90;;;;;;4955193;28;19914;-90
2022/04/21 05:23:32;;;;;;;;;;;14.40;51.50;;;;;;4973488;28;20401;-91
2022/04/21 05:25:57;;;;;;;;;;;14.90;50.60;;;;;;4973828;28;19914;-91
2022/04/21 05:28:24;;;;;;;;;;;15.30;49.50;;;;;;4963264;28;19925;-90
2022/04/21 05:30:56;;;;;;;;;;;15.70;48.10;;;;;;4973622;28;19910;-90
2022/04/21 05:33:24;;;;;;;;;;;16.00;47.00;;;;;;4970695;28;19929;-91
2022/04/21 05:35:50;;;;;;;;;;;16.30;46.40;;;;;;4978536;28;19961;-90
2022/04/21 05:38:17;;;;;;;;;;;16.60;45.80;;;;;;4985216;28;19985;-90
2022/04/21 05:40:43;;;;;;;;;;;17.00;44.70;;;;;;4977411;28;19914;-90
2022/04/21 05:43:10;;;;;;;;;;;17.30;43.60;;;;;;4988847;28;19918;-92
2022/04/21 05:45:36;;;;;;;;;;;17.70;42.50;;;;;;4989748;28;19914;-90
2022/04/21 05:48:02;;;;;;;;;;;18.00;41.30;;;;;;4973471;28;20000;-90
2022/04/21 05:50:28;;;;;;;;;;;18.30;40.60;;;;;;4969082;28;19926;-91
2022/04/21 05:52:54;;;;;;;;;;;18.40;38.90;;;;;;4984076;28;20464;-91
2022/04/21 05:55:20;;;;;;;;;;;18.30;37.30;;;;;;4984941;28;19922;-91
2022/04/21 05:57:45;;;;;;;;;;;18.00;36.90;;;;;;4971021;28;19969;-91
2022/04/21 06:00:11;;;;;;;;;;;17.60;37.10;;;;;;4982730;28;19917;-91
2022/04/21 06:02:37;;;;;;;;;;;17.30;37.30;;;;;;4978613;28;19983;-92
2022/04/21 06:05:03;;;;;;;;;;;16.80;37.80;;;;;;4977553;28;20038;-91
2022/04/21 06:07:29;;;;;;;;;;;16.60;38.20;;;;;;4955772;28;19914;-91
2022/04/21 06:09:54;;;;;;;;;;;16.30;38.50;;;;;;4976576;28;19925;-92
2022/04/21 06:12:20;;;;;;;;;;;16.20;38.70;;;;;;4999104;28;19916;-90
2022/04/21 06:14:45;;;;;;;;;;;16.00;38.80;;;;;;4978472;28;19922;-91
2022/04/21 06:17:11;;;;;;;;;;;15.80;39.00;;;;;;4982544;28;19918;-92
2022/04/21 06:19:36;;;;;;;;;;;15.60;39.30;;;;;;4984602;28;19914;-92
2022/04/21 06:22:02;;;;;;;;;;;15.50;39.60;;;;;;4980176;28;19953;-93
2022/04/21 06:24:29;;;;;;;;;;;15.30;39.80;;;;;;4982503;28;19914;-89
2022/04/21 06:26:55;;;;;;;;;;;15.20;40.00;;;;;;4955733;28;19926;-92
2022/04/21 06:29:20;;;;;;;;;;;15.10;40.30;;;;;;4979490;28;19914;-92
2022/04/21 06:31:45;;;;;;;;;;;15.10;40.50;;;;;;4979233;28;20420;-92
2022/04/21 06:34:11;;;;;;;;;;;15.00;40.60;;;;;;4982237;28;20267;-92
2022/04/21 06:39:14;;;;;;;;;;;15.00;41.10;;;;;;5006438;28;19948;-94
2022/04/21 06:41:39;;;;;;;;;;;15.10;41.20;;;;;;4971047;28;19918;-94
2022/04/21 06:49:49;;;;;;;;;;;15.80;41.50;;;;;;4986400;28;19905;-92
2022/04/21 06:52:14;;;;;;;;;;;16.10;40.70;;;;;;5004584;28;19906;-93
2022/04/21 06:54:40;;;;;;;;;;;16.30;40.20;;;;;;4983022;28;19907;-93
2022/04/21 06:57:05;;;;;;;;;;;16.70;40.00;;;;;;4951351;28;19957;-93
2022/04/21 07:20:11;;;;;;;;;;;21.00;32.20;;;;;;5994802;23;19912;-92
2022/04/21 07:22:37;;;;;;;;;;;20.80;31.30;;;;;;4963481;28;19922;-94
2022/04/21 07:25:04;;;;;;;;;;;20.70;31.40;;;;;;4981077;28;20005;-93
2022/04/21 07:27:30;;;;;;;;;;;20.50;31.40;;;;;;4963450;28;19925;-93
2022/04/21 07:29:56;;;;;;;;;;;20.40;31.60;;;;;;4963767;28;19922;-93
2022/04/21 07:32:22;;;;;;;;;;;20.20;31.20;;;;;;4963643;28;19918;-93
2022/04/21 07:34:47;;;;;;;;;;;19.90;31.30;;;;;;4961853;28;19908;-93
2022/04/21 07:37:13;;;;;;;;;;;19.60;31.70;;;;;;4981468;28;19918;-94
2022/04/21 07:39:42;;;;;;;;;;;19.30;32.10;;;;;;4960020;28;19902;-93
2022/04/21 07:55:30;;;;;;;;;;;18.70;33.30;;;;;;5012096;28;19933;-91
2022/04/21 07:57:57;;;;;;;;;;;18.50;33.50;;;;;;5008299;28;19922;-92
2022/04/21 08:00:23;;;;;;;;;;;18.30;33.70;;;;;;4992207;28;19918;-92
2022/04/21 08:02:51;;;;;;;;;;;18.00;34.10;;;;;;5005861;28;19930;-92
2022/04/21 08:05:37;;;;;;;;;;;17.90;34.40;;;;;;4993729;28;19965;-92
2022/04/21 08:08:03;;;;;;;;;;;17.70;34.80;;;;;;5010641;28;19953;-92
2022/04/21 08:10:42;;;;;;;;;;;17.50;35.00;;;;;;5010531;28;19929;-91
2022/04/21 08:13:07;;;;;;;;;;;17.40;35.20;;;;;;4975547;28;19933;-91
2022/04/21 08:15:47;;;;;;;;;;;17.30;35.40;;;;;;5013030;28;19918;-93
2022/04/21 08:18:19;;;;;;;;;;;17.30;35.60;;;;;;4994076;28;19906;-91
2022/04/21 08:20:47;;;;;;;;;;;17.20;35.70;;;;;;4972323;28;20092;-91
2022/04/21 08:23:13;;;;;;;;;;;17.00;35.90;;;;;;4973514;28;19949;-92
2022/04/21 08:33:54;;;;;;;;;;;16.70;37.30;;;;;;4980215;28;19969;-91
2022/04/21 08:36:20;;;;;;;;;;;16.70;37.20;;;;;;4979810;28;19926;-91
2022/04/21 08:38:47;;;;;;;;;;;16.80;37.20;;;;;;4962885;28;20357;-93
2022/04/21 08:41:15;;;;;;;;;;;16.90;37.00;;;;;;4963934;28;19933;-92
2022/04/21 08:43:41;;;;;;;;;;;17.00;37.00;;;;;;4963224;28;19918;-92
2022/04/21 08:46:08;;;;;;;;;;;17.20;36.90;;;;;;4959432;29;19925;-91
2022/04/21 08:48:34;;;;;;;;;;;17.30;36.70;;;;;;4965019;28;19942;-91
2022/04/21 08:51:00;;;;;;;;;;;17.40;36.60;;;;;;4969977;28;19914;-93
2022/04/21 08:53:27;;;;;;;;;;;17.50;36.40;;;;;;4966383;28;19972;-92
2022/04/21 08:55:52;;;;;;;;;;;17.60;36.30;;;;;;4966711;28;19922;-93
2022/04/21 08:58:19;;;;;;;;;;;17.70;36.10;;;;;;4982797;28;19922;-91
2022/04/21 09:00:44;;;;;;;;;;;17.70;36.00;;;;;;4969400;28;19954;-91
2022/04/21 09:03:11;;;;;;;;;;;17.70;36.10;;;;;;4971566;28;19942;-95
2022/04/21 09:05:37;;;;;;;;;;;17.80;36.20;;;;;;4970160;28;19922;-94
2022/04/21 09:08:02;;;;;;;;;;;18.00;36.20;;;;;;4965137;28;20002;-91
2022/04/21 09:10:29;;;;;;;;;;;18.30;36.10;;;;;;4979958;28;19918;-91
2022/04/21 09:12:59;;;;;;;;;;;18.50;35.80;;;;;;4971402;28;19986;-91
2022/04/21 09:15:27;;;;;;;;;;;18.80;35.40;;;;;;4966000;28;20017;-94
2022/04/21 09:18:06;;;;;;;;;;;18.90;34.90;;;;;;4965447;28;20390;-93
2022/04/21 09:20:39;;;;;;;;;;;19.10;34.40;;;;;;4970439;28;19926;-91
2022/04/21 09:23:06;;;;;;;;;;;19.20;34.40;;;;;;4980393;28;20539;-93
2022/04/21 09:25:42;;;;;;;;;;;19.30;34.20;;;;;;4977725;28;19929;-92
2022/04/21 09:28:19;;;;;;;;;;;19.50;34.30;;;;;;4981612;28;19993;-93
2022/04/21 09:30:45;;;;;;;;;;;19.70;34.20;;;;;;4977909;28;19918;-92
2022/04/21 09:33:11;;;;;;;;;;;20.00;34.10;;;;;;4981864;28;19968;-92
2022/04/21 09:35:37;;;;;;;;;;;20.30;33.40;;;;;;4974933;28;20469;-93
2022/04/21 09:38:04;;;;;;;;;;;20.70;33.00;;;;;;4968645;28;19921;-95
2022/04/21 09:40:30;;;;;;;;;;;21.10;32.80;;;;;;4976332;28;19925;-92
2022/04/21 09:43:03;;;;;;;;;;;21.60;32.70;;;;;;4981144;28;19914;-94
2022/04/21 09:48:17;;;;;;;;;;;23.20;31.20;;;;;;4981053;28;19964;-93
2022/04/21 09:50:42;;;;;;;;;;;24.10;29.70;;;;;;4981093;28;19898;-93
2022/04/21 09:53:08;;;;;;;;;;;24.60;29.20;;;;;;4963244;28;20485;-94
2022/04/21 09:55:34;;;;;;;;;;;25.30;28.60;;;;;;4970392;28;19928;-93
2022/04/21 09:58:04;;;;;;;;;;;26.00;28.50;;;;;;4962488;28;20013;-93
2022/04/21 10:00:30;;;;;;;;;;;26.70;27.80;;;;;;4967820;28;19973;-94
2022/04/21 10:02:56;;;;;;;;;;;27.20;27.00;;;;;;4963482;28;19914;-93
2022/04/21 10:05:22;;;;;;;;;;;27.80;26.40;;;;;;4966663;28;19941;-94
2022/04/21 10:07:47;;;;;;;;;;;28.30;25.60;;;;;;4981028;28;19914;-94
2022/04/21 10:10:13;;;;;;;;;;;28.30;24.00;;;;;;4981138;28;19926;-93
2022/04/21 10:12:39;;;;;;;;;;;28.10;23.60;;;;;;4964956;28;20076;-93
2022/04/21 10:15:05;;;;;;;;;;;27.70;23.30;;;;;;4981407;28;19932;-93
2022/04/21 10:17:32;;;;;;;;;;;27.30;24.20;;;;;;4988868;28;19918;-93
2022/04/21 10:19:58;;;;;;;;;;;27.10;24.40;;;;;;4974391;28;20361;-92
2022/04/21 10:22:23;;;;;;;;;;;26.90;24.30;;;;;;4968883;28;19964;-91
2022/04/21 10:24:53;;;;;;;;;;;26.60;24.00;;;;;;4981188;28;19945;-93
2022/04/21 10:27:39;;;;;;;;;;;26.10;24.40;;;;;;4975289;28;19914;-93
2022/04/21 10:30:25;;;;;;;;;;;25.80;24.50;;;;;;4966332;28;19914;-94
2022/04/21 10:32:58;;;;;;;;;;;25.30;24.90;;;;;;4954562;29;19910;-93
2022/04/21 10:35:27;;;;;;;;;;;25.00;25.20;;;;;;4983598;28;19910;-95
2022/04/21 10:38:14;;;;;;;;;;;24.70;25.40;;;;;;4980730;28;20330;-96
2022/04/21 10:40:56;;;;;;;;;;;24.30;25.70;;;;;;4986733;28;19898;-95
2022/04/21 10:43:22;;;;;;;;;;;24.10;26.20;;;;;;4982100;28;19986;-93
2022/04/21 10:46:06;;;;;;;;;;;24.00;26.60;;;;;;4969077;28;19949;-92
2022/04/21 10:48:39;;;;;;;;;;;24.00;26.90;;;;;;4979787;28;19936;-93
2022/04/21 10:51:08;;;;;;;;;;;23.80;26.80;;;;;;4967453;28;20407;-93
2022/04/21 10:57:12;;;;;;;;;;;23.60;27.30;;;;;;4988018;28;19932;-92
2022/04/21 10:59:31;;;;;;;;;;;23.60;27.70;;;;;;4981450;28;19925;-92
2022/04/21 11:02:13;;;;;;;;;;;23.60;27.60;;;;;;4980403;28;19918;-94
2022/04/21 11:04:41;;;;;;;;;;;23.60;27.70;;;;;;4948587;28;20361;-95
2022/04/21 11:07:11;;;;;;;;;;;23.70;27.80;;;;;;4962264;28;19925;-94
2022/04/21 11:09:50;;;;;;;;;;;24.00;27.90;;;;;;4963730;28;19972;-94
2022/04/21 11:12:16;;;;;;;;;;;24.50;27.40;;;;;;4979409;28;19916;-93
2022/04/21 11:14:42;;;;;;;;;;;25.00;27.00;;;;;;4976006;28;19922;-92
2022/04/21 11:17:08;;;;;;;;;;;25.40;26.60;;;;;;4961392;28;19925;-92
2022/04/21 11:19:49;;;;;;;;;;;25.80;26.30;;;;;;4971683;28;19928;-93
2022/04/21 11:22:37;;;;;;;;;;;26.00;26.00;;;;;;4957467;28;19918;-94
2022/04/21 11:25:04;;;;;;;;;;;26.00;25.70;;;;;;4967374;28;19918;-92
2022/04/21 11:27:32;;;;;;;;;;;26.00;25.60;;;;;;4976809;28;19929;-93
2022/04/21 11:29:58;;;;;;;;;;;25.90;25.60;;;;;;4952537;28;19918;-93
2022/04/21 11:32:23;;;;;;;;;;;26.00;25.70;;;;;;4983275;28;19917;-94
2022/04/21 11:35:03;;;;;;;;;;;26.00;25.80;;;;;;4949676;28;19926;-92
2022/04/21 11:37:47;;;;;;;;;;;26.20;25.50;;;;;;4983839;28;19914;-93
2022/04/21 11:40:32;;;;;;;;;;;26.50;25.40;;;;;;4986204;28;19922;-92
2022/04/21 11:43:02;;;;;;;;;;;26.60;25.20;;;;;;4962112;28;19921;-92
2022/04/21 11:45:34;;;;;;;;;;;26.90;24.90;;;;;;4982117;28;19929;-92
2022/04/21 11:47:59;;;;;;;;;;;27.20;25.20;;;;;;4981147;28;20026;-94
2022/04/21 11:50:29;;;;;;;;;;;27.70;25.20;;;;;;4970705;28;20441;-92
2022/04/21 11:52:55;;;;;;;;;;;28.50;24.50;;;;;;4982947;28;19924;-93
2022/04/21 11:55:22;;;;;;;;;;;28.90;24.10;;;;;;4983127;28;19930;-93
2022/04/21 11:57:48;;;;;;;;;;;29.30;23.40;;;;;;4964322;28;19949;-92
2022/04/21 12:00:15;;;;;;;;;;;29.70;23.20;;;;;;4976907;28;19918;-93
2022/04/21 12:08:14;;;;;;;;;;;29.00;22.30;;;;;;4984719;28;19941;-95
2022/04/21 12:10:41;;;;;;;;;;;28.00;23.30;;;;;;4979223;28;19972;-92
2022/04/21 12:13:07;;;;;;;;;;;27.30;23.90;;;;;;4983111;28;19918;-93
2022/04/21 12:15:36;;;;;;;;;;;27.00;24.60;;;;;;4978871;28;19993;-92
2022/04/21 12:18:02;;;;;;;;;;;27.20;24.60;;;;;;4982393;28;19942;-92
2022/04/21 12:20:30;;;;;;;;;;;27.50;24.80;;;;;;4964758;28;19939;-91
2022/04/21 12:23:00;;;;;;;;;;;28.00;24.50;;;;;;4964121;28;20388;-93
2022/04/21 12:25:30;;;;;;;;;;;28.20;24.00;;;;;;4962793;28;19919;-93
2022/04/21 12:27:56;;;;;;;;;;;28.40;24.10;;;;;;4973235;28;20000;-93
2022/04/21 12:30:24;;;;;;;;;;;28.40;24.10;;;;;;4972914;28;19922;-92
2022/04/21 12:32:49;;;;;;;;;;;27.90;24.10;;;;;;4967231;28;19966;-93
2022/04/21 12:35:18;;;;;;;;;;;27.60;24.60;;;;;;4962391;28;20033;-92
2022/04/21 12:40:37;;;;;;;;;;;27.80;24.50;;;;;;4976995;28;19964;-92
2022/04/21 12:43:02;;;;;;;;;;;27.70;24.50;;;;;;4964168;28;19914;-92
2022/04/21 12:45:28;;;;;;;;;;;28.00;24.30;;;;;;4990907;28;19918;-93
2022/04/21 12:47:54;;;;;;;;;;;28.00;24.10;;;;;;4979755;28;20040;-93
2022/04/21 12:50:21;;;;;;;;;;;27.80;24.40;;;;;;4981465;28;20290;-93
2022/04/21 12:52:47;;;;;;;;;;;27.40;24.70;;;;;;4960214;28;20070;-93
2022/04/21 12:55:22;;;;;;;;;;;27.00;24.90;;;;;;4983920;28;19926;-92
2022/04/21 12:58:09;;;;;;;;;;;26.80;25.30;;;;;;4974092;28;20378;-93
2022/04/21 13:00:41;;;;;;;;;;;27.00;25.40;;;;;;4984401;28;19922;-92
2022/04/21 13:03:08;;;;;;;;;;;27.00;25.40;;;;;;4961144;28;19910;-93
2022/04/21 13:05:43;;;;;;;;;;;26.80;25.70;;;;;;4969900;28;19946;-94
2022/04/21 13:08:08;;;;;;;;;;;26.80;25.90;;;;;;4953483;29;19918;-93
2022/04/21 13:10:34;;;;;;;;;;;26.80;25.70;;;;;;4956995;29;19950;-92
2022/04/21 13:12:59;;;;;;;;;;;27.00;25.50;;;;;;4957845;28;19914;-91
2022/04/21 13:15:25;;;;;;;;;;;26.90;25.40;;;;;;4977558;28;19922;-92
2022/04/21 13:17:50;;;;;;;;;;;26.70;25.70;;;;;;4968957;28;19940;-92
2022/04/21 13:21:52;;;;;;;;;;;26.50;26.00;;;;;;4979140;28;19985;-93
2022/04/21 13:23:01;;;;;;;;;;;26.40;26.10;;;;;;4980267;28;20014;-92
2022/04/21 13:25:27;;;;;;;;;;;26.50;26.10;;;;;;4963043;28;20024;-92
2022/04/21 13:27:52;;;;;;;;;;;26.60;25.90;;;;;;4963305;28;19914;-92
2022/04/21 13:30:18;;;;;;;;;;;26.50;25.80;;;;;;4971788;28;19953;-92
2022/04/21 13:35:29;;;;;;;;;;;26.10;26.40;;;;;;4981825;28;19945;-91
2022/04/21 13:37:54;;;;;;;;;;;25.70;26.80;;;;;;4961862;28;20594;-93
2022/04/21 13:40:20;;;;;;;;;;;25.50;27.20;;;;;;4978571;28;19922;-89
2022/04/21 13:42:45;;;;;;;;;;;25.30;27.50;;;;;;4977680;28;19918;-91
2022/04/21 13:45:11;;;;;;;;;;;25.30;27.90;;;;;;4962261;28;19918;-92
2022/04/21 13:47:37;;;;;;;;;;;25.20;28.00;;;;;;4981941;28;19946;-91
2022/04/21 13:50:03;;;;;;;;;;;24.80;28.20;;;;;;4977057;28;20366;-89
2022/04/21 13:52:28;;;;;;;;;;;24.70;28.60;;;;;;4976126;28;20009;-90
2022/04/21 13:54:54;;;;;;;;;;;24.60;28.90;;;;;;4958406;28;20025;-92
2022/04/21 13:57:19;;;;;;;;;;;24.60;29.20;;;;;;4978898;28;20362;-91
2022/04/21 13:59:45;;;;;;;;;;;24.50;29.10;;;;;;4979142;28;20064;-91
2022/04/21 14:02:10;;;;;;;;;;;24.20;29.40;;;;;;4962595;28;19919;-93
2022/04/21 14:04:36;;;;;;;;;;;24.00;29.60;;;;;;4981252;28;19918;-92
2022/04/21 14:07:04;;;;;;;;;;;23.90;29.80;;;;;;4981565;28;19961;-91
2022/04/21 14:09:30;;;;;;;;;;;23.70;30.00;;;;;;4981744;28;19918;-91
2022/04/21 14:11:55;;;;;;;;;;;23.50;30.40;;;;;;4963009;28;19964;-90
2022/04/21 14:14:21;;;;;;;;;;;23.40;30.40;;;;;;4963071;28;19973;-91
2022/04/21 14:16:46;;;;;;;;;;;23.40;30.20;;;;;;4969929;28;20013;-90
2022/04/21 14:19:13;;;;;;;;;;;23.40;29.60;;;;;;4976382;28;19920;-92
2022/04/21 14:21:38;;;;;;;;;;;23.30;29.50;;;;;;4979559;28;19929;-90
2022/04/21 14:24:04;;;;;;;;;;;23.30;29.60;;;;;;4974212;28;19914;-91
2022/04/21 14:26:30;;;;;;;;;;;23.20;29.70;;;;;;4963964;28;19922;-93
2022/04/21 14:28:56;;;;;;;;;;;23.10;29.70;;;;;;4967109;28;19925;-94
2022/04/21 14:31:21;;;;;;;;;;;23.00;29.90;;;;;;4981519;28;19925;-92
2022/04/21 14:33:47;;;;;;;;;;;22.90;30.10;;;;;;4961209;28;19929;-91
2022/04/21 14:36:12;;;;;;;;;;;22.80;30.30;;;;;;4980235;28;19969;-92
2022/04/21 14:44:07;;;;;;;;;;;22.80;31.00;;;;;;4976768;28;20009;-92
2022/04/21 14:46:37;;;;;;;;;;;22.90;30.70;;;;;;4961594;28;19945;-91
2022/04/21 14:49:04;;;;;;;;;;;23.00;30.50;;;;;;4966741;28;19920;-92
2022/04/21 14:51:30;;;;;;;;;;;22.90;30.50;;;;;;4981864;28;19922;-92
2022/04/21 14:53:56;;;;;;;;;;;22.80;30.50;;;;;;4964391;28;19914;-92
2022/04/21 14:56:21;;;;;;;;;;;22.80;30.70;;;;;;4981798;28;19949;-93
2022/04/21 14:58:50;;;;;;;;;;;22.70;30.80;;;;;;4965126;28;19981;-91
2022/04/21 15:01:16;;;;;;;;;;;22.70;30.90;;;;;;4981063;28;19924;-92
2022/04/21 15:03:42;;;;;;;;;;;22.60;31.10;;;;;;4963830;28;19978;-93
2022/04/21 15:06:09;;;;;;;;;;;22.60;31.10;;;;;;4980481;28;20027;-91
2022/04/21 15:08:38;;;;;;;;;;;22.60;31.20;;;;;;4961997;28;20414;-93
2022/04/21 15:11:05;;;;;;;;;;;22.50;31.40;;;;;;4962990;28;19925;-95
2022/04/21 15:13:31;;;;;;;;;;;22.50;31.30;;;;;;4964354;28;19957;-93
2022/04/21 15:15:56;;;;;;;;;;;22.40;31.40;;;;;;4938894;29;19934;-93
2022/04/21 15:18:22;;;;;;;;;;;22.30;31.40;;;;;;4978911;28;19980;-94
2022/04/21 15:20:47;;;;;;;;;;;22.20;31.50;;;;;;4958347;28;19977;-94
2022/04/21 15:23:23;;;;;;;;;;;22.00;31.70;;;;;;4980104;28;20001;-92
2022/04/21 15:25:50;;;;;;;;;;;22.00;32.00;;;;;;4979754;28;20032;-92
2022/04/21 15:28:16;;;;;;;;;;;21.90;32.10;;;;;;4977461;28;20437;-91
2022/04/21 15:30:41;;;;;;;;;;;21.80;32.30;;;;;;4976420;28;19951;-92
2022/04/21 15:33:09;;;;;;;;;;;21.80;32.40;;;;;;4978388;28;19910;-89
2022/04/21 15:35:35;;;;;;;;;;;21.70;32.60;;;;;;4961302;28;19918;-92
2022/04/21 15:38:01;;;;;;;;;;;21.70;32.80;;;;;;4978890;28;19913;-93
2022/04/21 15:40:30;;;;;;;;;;;21.60;32.90;;;;;;4978833;28;20285;-94
2022/04/21 15:42:55;;;;;;;;;;;21.60;33.10;;;;;;4970603;28;20396;-91
2022/04/21 15:45:21;;;;;;;;;;;21.50;33.20;;;;;;4963888;28;19914;-92
2022/04/21 15:47:46;;;;;;;;;;;21.50;33.20;;;;;;4979073;28;19918;-92
2022/04/21 15:50:12;;;;;;;;;;;21.50;33.20;;;;;;4978706;28;20008;-92
2022/04/21 15:52:38;;;;;;;;;;;21.50;33.20;;;;;;4962174;28;19918;-93
2022/04/21 16:00:32;;;;;;;;;;;21.30;33.20;;;;;;4978249;28;19940;-93